Rio del Mar, California
Current Conditions -  °F | °C
As of 3:53 PM on Wednesday 28 Jan 2015 (Local Time) from KWVI Reporting Station
Clear Clear  
Wind Chill: 69°   Ceiling: Unl
Heat Index: 69°   Visibility: 10mi
Dew Point: 48°   Wind: 5mph
Humidity: 47%   Direction: 70°ENE
Pressure: 30.14"   Gusts: NA
Location:  37.0137°N, 121.877°W
Report Text: KWVI 282353Z AUTO 07004KT 10SM CLR 21/09 A3014 RMK AO2 SLP207 T02060089 10211 20144 56016
Loading
Personal Weather Stations






























Interactive Weather Map New forecast layout! Learn more

10-Day Weather Forecast

Advertisements
Track Severe Weather on mobile